createdAt,value
2016-06-07T00:00:00.007Z,0
2016-06-07T00:01:00.041Z,0
2016-06-07T00:02:00.091Z,0
2016-06-07T00:03:00.141Z,0
2016-06-07T00:04:00.173Z,0
2016-06-07T00:05:00.208Z,0
2016-06-07T00:06:01.382Z,0
2016-06-07T00:07:00.291Z,0
2016-06-07T00:08:00.324Z,0
2016-06-07T00:09:00.359Z,0
2016-06-07T00:10:00.409Z,0
2016-06-07T00:11:00.443Z,0
2016-06-07T00:12:00.493Z,0
2016-06-07T00:13:00.526Z,0
2016-06-07T00:14:00.544Z,0
2016-06-07T00:15:00.609Z,0
2016-06-07T00:16:00.643Z,0
2016-06-07T00:17:00.521Z,0
2016-06-07T00:18:00.726Z,0
2016-06-07T00:19:00.761Z,0
2016-06-07T00:20:00.811Z,0
2016-06-07T00:21:01.860Z,0
2016-06-07T00:22:00.879Z,0
2016-06-07T00:23:00.928Z,0
2016-06-07T00:24:00.961Z,0
2016-06-07T00:25:00.995Z,0
2016-06-07T00:26:01.045Z,0
2016-06-07T00:27:01.079Z,0
2016-06-07T00:28:01.114Z,0
2016-06-07T00:29:01.148Z,0
2016-06-07T00:30:01.197Z,0
2016-06-07T00:31:01.230Z,0
2016-06-07T00:32:01.280Z,0
2016-06-07T00:33:01.314Z,0
2016-06-07T00:34:01.349Z,0
2016-06-07T00:35:01.382Z,0
2016-06-07T00:36:01.791Z,0
2016-06-07T00:37:01.481Z,0
2016-06-07T00:38:01.516Z,0
2016-06-07T00:39:01.549Z,0
2016-06-07T00:40:01.598Z,0
2016-06-07T00:41:01.632Z,0
2016-06-07T00:42:01.666Z,0
2016-06-07T00:43:01.701Z,0
2016-06-07T00:44:01.750Z,0
2016-06-07T00:45:01.784Z,0
2016-06-07T00:46:01.818Z,0
2016-06-07T00:47:01.977Z,0
2016-06-07T00:48:01.901Z,0
2016-06-07T00:49:01.951Z,0
2016-06-07T00:50:01.984Z,0
2016-06-07T00:51:01.878Z,0
2016-06-07T00:52:02.068Z,0
2016-06-07T00:53:02.103Z,0
2016-06-07T00:54:02.152Z,0
2016-06-07T00:55:02.030Z,0
2016-06-07T00:56:02.064Z,0
2016-06-07T00:57:02.254Z,0
2016-06-07T00:58:02.147Z,0
2016-06-07T00:59:02.337Z,0
2016-06-07T01:00:02.372Z,0
2016-06-07T01:01:02.421Z,0
2016-06-07T01:02:02.455Z,0
2016-06-07T01:03:02.489Z,0
2016-06-07T01:04:02.538Z,0
2016-06-07T01:05:02.572Z,0
2016-06-07T01:06:02.480Z,0
2016-06-07T01:07:02.499Z,0
2016-06-07T01:08:02.690Z,0
2016-06-07T01:09:02.724Z,0
2016-06-07T01:10:02.617Z,0
2016-06-07T01:11:02.807Z,0
2016-06-07T01:12:02.840Z,0
2016-06-07T01:13:02.890Z,0
2016-06-07T01:14:02.924Z,0
2016-06-07T01:15:02.959Z,0
2016-06-07T01:16:02.992Z,0
2016-06-07T01:17:03.042Z,0
2016-06-07T01:18:03.076Z,0
2016-06-07T01:19:03.109Z,0
2016-06-07T01:20:03.143Z,0
2016-06-07T01:21:03.365Z,0
2016-06-07T01:22:03.493Z,0
2016-06-07T01:23:03.276Z,0
2016-06-07T01:24:03.311Z,0
2016-06-07T01:25:03.344Z,0
2016-06-07T01:26:03.395Z,0
2016-06-07T01:27:03.428Z,0
2016-06-07T01:28:03.478Z,0
2016-06-07T01:29:03.511Z,0
2016-06-07T01:30:03.389Z,0
2016-06-07T01:31:03.595Z,0
2016-06-07T01:32:03.614Z,0
2016-06-07T01:33:03.663Z,0
2016-06-07T01:34:03.713Z,0
2016-06-07T01:35:03.746Z,0
2016-06-07T01:36:04.500Z,0
2016-06-07T01:37:03.861Z,0
2016-06-07T01:38:03.896Z,0
2016-06-07T01:39:03.898Z,0
2016-06-07T01:40:03.932Z,0
2016-06-07T01:41:03.982Z,0
2016-06-07T01:42:04.016Z,0
2016-06-07T01:43:04.049Z,0
2016-06-07T01:44:04.082Z,0
2016-06-07T01:45:04.132Z,0
2016-06-07T01:46:04.167Z,0
2016-06-07T01:47:04.200Z,0
2016-06-07T01:48:04.238Z,0
2016-06-07T01:49:04.162Z,0
2016-06-07T01:50:04.211Z,0
2016-06-07T01:51:05.354Z,0
2016-06-07T01:52:04.355Z,0
2016-06-07T01:53:04.527Z,0
2016-06-07T01:54:04.582Z,0
2016-06-07T01:55:04.606Z,0
2016-06-07T01:56:04.646Z,0
2016-06-07T01:57:04.544Z,0
2016-06-07T01:58:04.739Z,0
2016-06-07T01:59:04.790Z,0
2016-06-07T02:00:04.825Z,0
2016-06-07T02:01:04.861Z,0
2016-06-07T02:02:04.898Z,0
2016-06-07T02:03:04.949Z,0
2016-06-07T02:04:04.968Z,0
2016-06-07T02:05:04.878Z,0
2016-06-07T02:06:05.210Z,0
2016-06-07T02:07:05.791Z,0
2016-06-07T02:08:05.138Z,0
2016-06-07T02:09:05.173Z,0
2016-06-07T02:10:05.207Z,0
2016-06-07T02:11:05.256Z,0
2016-06-07T02:12:05.291Z,0
2016-06-07T02:13:05.341Z,0
2016-06-07T02:14:05.391Z,0
2016-06-07T02:15:05.408Z,0
2016-06-07T02:16:05.458Z,0
2016-06-07T02:17:05.507Z,0
2016-06-07T02:18:05.527Z,0
2016-06-07T02:19:05.576Z,0
2016-06-07T02:20:05.610Z,0
2016-06-07T02:21:05.503Z,0
2016-06-07T02:22:05.802Z,0
2016-06-07T02:23:05.727Z,0
2016-06-07T02:24:05.762Z,0
2016-06-07T02:25:05.795Z,0
2016-06-07T02:26:05.829Z,0
2016-06-07T02:27:05.879Z,4
2016-06-07T02:28:05.928Z,4
2016-06-07T02:29:05.962Z,4
2016-06-07T02:30:06.011Z,0
2016-06-07T02:31:06.045Z,0
2016-06-07T02:32:06.079Z,4
2016-06-07T02:33:06.114Z,4
2016-06-07T02:34:06.148Z,4
2016-06-07T02:35:06.181Z,0
2016-06-07T02:36:06.247Z,4
2016-06-07T02:37:06.546Z,4
2016-06-07T02:38:06.158Z,8
2016-06-07T02:39:06.348Z,4
2016-06-07T02:40:06.398Z,8
2016-06-07T02:41:06.432Z,4
2016-06-07T02:42:06.606Z,8
2016-06-07T02:43:06.359Z,8
2016-06-07T02:44:06.533Z,8
2016-06-07T02:45:06.583Z,8
2016-06-07T02:46:06.461Z,8
2016-06-07T02:47:06.651Z,12
2016-06-07T02:48:06.716Z,16
2016-06-07T02:49:06.749Z,16
2016-06-07T02:50:06.613Z,20
2016-06-07T02:51:07.085Z,20
2016-06-07T02:52:06.867Z,24
2016-06-07T02:53:06.886Z,28
2016-06-07T02:54:06.779Z,28
2016-06-07T02:55:06.970Z,28
2016-06-07T02:56:07.004Z,36
2016-06-07T02:57:07.053Z,36
2016-06-07T02:58:07.087Z,44
2016-06-07T02:59:07.137Z,44
2016-06-07T03:00:07.155Z,52
2016-06-07T03:01:07.204Z,56
2016-06-07T03:02:07.254Z,64
2016-06-07T03:03:07.287Z,68
2016-06-07T03:04:07.322Z,72
2016-06-07T03:05:07.372Z,80
2016-06-07T03:06:08.483Z,88
2016-06-07T03:07:07.455Z,92
2016-06-07T03:08:07.473Z,104
2016-06-07T03:09:07.523Z,112
2016-06-07T03:10:07.260Z,120
2016-06-07T03:11:07.591Z,128
2016-06-07T03:12:07.640Z,136
2016-06-07T03:13:07.674Z,144
2016-06-07T03:14:07.708Z,152
2016-06-07T03:15:07.741Z,164
2016-06-07T03:16:07.776Z,180
2016-06-07T03:17:07.825Z,192
2016-06-07T03:18:07.875Z,212
2016-06-07T03:19:07.738Z,228
2016-06-07T03:20:07.943Z,244
2016-06-07T03:21:07.977Z,268
2016-06-07T03:22:08.011Z,284
2016-06-07T03:23:08.060Z,304
2016-06-07T03:24:08.110Z,324
2016-06-07T03:25:08.129Z,344
2016-06-07T03:26:08.163Z,368
2016-06-07T03:27:08.056Z,392
2016-06-07T03:28:08.246Z,416
2016-06-07T03:29:08.295Z,440
2016-06-07T03:30:08.314Z,464
2016-06-07T03:31:08.379Z,492
2016-06-07T03:32:08.398Z,520
2016-06-07T03:33:08.447Z,548
2016-06-07T03:34:08.481Z,576
2016-06-07T03:35:08.514Z,604
2016-06-07T03:36:08.970Z,628
2016-06-07T03:37:08.473Z,660
2016-06-07T03:38:08.631Z,688
2016-06-07T03:39:08.666Z,724
2016-06-07T03:40:08.716Z,764
2016-06-07T03:41:08.734Z,804
2016-06-07T03:42:08.799Z,852
2016-06-07T03:43:08.833Z,908
2016-06-07T03:44:08.852Z,964
2016-06-07T03:45:08.900Z,1024
2016-06-07T03:46:08.935Z,1080
2016-06-07T03:47:08.969Z,1132
2016-06-07T03:48:09.018Z,1176
2016-06-07T03:49:09.052Z,1216
2016-06-07T03:50:09.086Z,1256
2016-06-07T03:51:09.339Z,1300
2016-06-07T03:52:09.201Z,1336
2016-06-07T03:53:09.204Z,1380
2016-06-07T03:54:09.238Z,1416
2016-06-07T03:55:09.287Z,1448
2016-06-07T03:56:09.321Z,1480
2016-06-07T03:57:09.370Z,1508
2016-06-07T03:58:09.404Z,1540
2016-06-07T03:59:09.423Z,1568
2016-06-07T04:00:09.473Z,1592
2016-06-07T04:01:09.523Z,1624
2016-06-07T04:02:09.556Z,1656
2016-06-07T04:03:09.590Z,1700
2016-06-07T04:04:09.639Z,1748
2016-06-07T04:05:09.673Z,1796
2016-06-07T04:06:09.707Z,1848
2016-06-07T04:07:10.117Z,1892
2016-06-07T04:08:09.775Z,1940
2016-06-07T04:09:09.825Z,1996
2016-06-07T04:10:09.859Z,2056
2016-06-07T04:11:09.892Z,2108
2016-06-07T04:12:09.942Z,2160
2016-06-07T04:13:09.820Z,2208
2016-06-07T04:14:10.011Z,2256
2016-06-07T04:15:10.060Z,2296
2016-06-07T04:16:10.108Z,2332
2016-06-07T04:17:10.128Z,2356
2016-06-07T04:18:10.178Z,2376
2016-06-07T04:19:10.211Z,2388
2016-06-07T04:20:10.244Z,2404
2016-06-07T04:21:10.294Z,2416
2016-06-07T04:22:10.047Z,2432
2016-06-07T04:23:10.363Z,2448
2016-06-07T04:24:10.413Z,2460
2016-06-07T04:25:10.446Z,2488
2016-06-07T04:26:10.479Z,2516
2016-06-07T04:27:10.530Z,2548
2016-06-07T04:28:10.563Z,2584
2016-06-07T04:29:10.598Z,2628
2016-06-07T04:30:10.646Z,2672
2016-06-07T04:31:10.525Z,2720
2016-06-07T04:32:10.731Z,2772
2016-06-07T04:33:10.764Z,2828
2016-06-07T04:34:10.799Z,2900
2016-06-07T04:35:10.847Z,2992
2016-06-07T04:36:10.882Z,3100
2016-06-07T04:37:11.384Z,3176
2016-06-07T04:38:10.903Z,3228
2016-06-07T04:39:10.999Z,3292
2016-06-07T04:40:11.034Z,3364
2016-06-07T04:41:11.083Z,3404
2016-06-07T04:42:11.117Z,3400
2016-06-07T04:43:11.150Z,3380
2016-06-07T04:44:11.185Z,3364
2016-06-07T04:45:11.233Z,3372
2016-06-07T04:46:11.283Z,3404
2016-06-07T04:47:11.317Z,3456
2016-06-07T04:48:11.352Z,3492
2016-06-07T04:49:11.386Z,3516
2016-06-07T04:50:11.279Z,3528
2016-06-07T04:51:11.469Z,3536
2016-06-07T04:52:11.659Z,3544
2016-06-07T04:53:11.552Z,3540
2016-06-07T04:54:11.602Z,3592
2016-06-07T04:55:11.464Z,3528
2016-06-07T04:56:11.670Z,3480
2016-06-07T04:57:11.704Z,3448
2016-06-07T04:58:11.738Z,3428
2016-06-07T04:59:11.632Z,3412
2016-06-07T05:00:11.696Z,3408
2016-06-07T05:01:11.871Z,3400
2016-06-07T05:02:11.904Z,3392
2016-06-07T05:03:11.970Z,3396
2016-06-07T05:04:11.988Z,3420
2016-06-07T05:05:12.023Z,3464
2016-06-07T05:06:12.057Z,3540
2016-06-07T05:07:12.606Z,3616
2016-06-07T05:08:12.109Z,3732
2016-06-07T05:09:12.189Z,3900
2016-06-07T05:10:12.223Z,4072
2016-06-07T05:11:12.257Z,4256
2016-06-07T05:12:12.306Z,4404
2016-06-07T05:13:12.184Z,4552
2016-06-07T05:14:12.375Z,4756
2016-06-07T05:15:12.409Z,4756
2016-06-07T05:16:12.458Z,4668
2016-06-07T05:17:12.507Z,4608
2016-06-07T05:18:12.542Z,4584
2016-06-07T05:19:12.591Z,4640
2016-06-07T05:20:12.641Z,4768
2016-06-07T05:21:12.518Z,4864
2016-06-07T05:22:13.662Z,4884
2016-06-07T05:23:12.743Z,4944
2016-06-07T05:24:12.792Z,5028
2016-06-07T05:25:12.669Z,5140
2016-06-07T05:26:12.860Z,5288
2016-06-07T05:27:12.894Z,5436
2016-06-07T05:28:12.788Z,5484
2016-06-07T05:29:12.993Z,5492
2016-06-07T05:30:13.026Z,5572
2016-06-07T05:31:13.060Z,5588
2016-06-07T05:32:13.095Z,5644
2016-06-07T05:33:13.145Z,5612
2016-06-07T05:34:13.179Z,5708
2016-06-07T05:35:13.229Z,5828
2016-06-07T05:36:13.262Z,6064
2016-06-07T05:37:13.373Z,6252
2016-06-07T05:38:13.190Z,6424
2016-06-07T05:39:13.395Z,6592
2016-06-07T05:40:13.445Z,6672
2016-06-07T05:41:13.478Z,6552
2016-06-07T05:42:14.669Z,6552
2016-06-07T05:43:13.547Z,6616
2016-06-07T05:44:13.596Z,6724
2016-06-07T05:45:13.473Z,6868
2016-06-07T05:46:13.664Z,7056
2016-06-07T05:47:13.697Z,7260
2016-06-07T05:48:13.747Z,7444
2016-06-07T05:49:13.781Z,7676
2016-06-07T05:50:13.830Z,7984
2016-06-07T05:51:13.880Z,8216
2016-06-07T05:52:15.180Z,8988
2016-06-07T05:53:13.808Z,9596
2016-06-07T05:54:14.014Z,9592
2016-06-07T05:55:14.032Z,9352
2016-06-07T05:56:14.066Z,9556
2016-06-07T05:57:14.116Z,10300
2016-06-07T05:58:14.166Z,11384
2016-06-07T05:59:14.215Z,11292
2016-06-07T06:00:14.248Z,10428
2016-06-07T06:01:14.283Z,10380
2016-06-07T06:02:14.316Z,10432
2016-06-07T06:03:14.366Z,10420
2016-06-07T06:04:14.399Z,10312
2016-06-07T06:05:14.434Z,10196
2016-06-07T06:06:14.484Z,10092
2016-06-07T06:07:15.112Z,10064
2016-06-07T06:08:15.645Z,10072
2016-06-07T06:09:14.617Z,10096
2016-06-07T06:10:14.651Z,10144
2016-06-07T06:11:14.700Z,10240
2016-06-07T06:12:14.734Z,10392
2016-06-07T06:13:14.628Z,10308
2016-06-07T06:14:14.817Z,10168
2016-06-07T06:15:14.867Z,10096
2016-06-07T06:16:14.900Z,9944
2016-06-07T06:17:14.967Z,9772
2016-06-07T06:18:14.984Z,9444
2016-06-07T06:19:14.894Z,9272
2016-06-07T06:20:15.083Z,9112
2016-06-07T06:21:15.117Z,9036
2016-06-07T06:22:14.902Z,9012
2016-06-07T06:23:15.061Z,9080
2016-06-07T06:24:15.235Z,9292
2016-06-07T06:25:15.300Z,9420
2016-06-07T06:26:15.334Z,9476
2016-06-07T06:27:15.368Z,10220
2016-06-07T06:28:15.261Z,10184
2016-06-07T06:29:15.295Z,9868
2016-06-07T06:30:15.486Z,9796
2016-06-07T06:31:15.394Z,9820
2016-06-07T06:32:15.568Z,9696
2016-06-07T06:33:15.619Z,9532
2016-06-07T06:34:15.668Z,9320
2016-06-07T06:35:15.701Z,9376
2016-06-07T06:36:15.735Z,9388
2016-06-07T06:37:15.660Z,9292
2016-06-07T06:38:15.820Z,9256
2016-06-07T06:39:15.868Z,8988
2016-06-07T06:40:15.918Z,9136
2016-06-07T06:41:15.952Z,9172
2016-06-07T06:42:16.002Z,9260
2016-06-07T06:43:15.896Z,9212
2016-06-07T06:44:16.086Z,9224
2016-06-07T06:45:16.119Z,9288
2016-06-07T06:46:16.154Z,9356
2016-06-07T06:47:16.203Z,9516
2016-06-07T06:48:16.236Z,9436
2016-06-07T06:49:16.131Z,9320
2016-06-07T06:50:16.320Z,9388
2016-06-07T06:51:16.370Z,9244
2016-06-07T06:52:17.013Z,9204
2016-06-07T06:53:16.470Z,9192
2016-06-07T06:54:16.347Z,9224
2016-06-07T06:55:16.380Z,9276
2016-06-07T06:56:16.572Z,9348
2016-06-07T06:57:16.621Z,9460
2016-06-07T06:58:16.655Z,9584
2016-06-07T06:59:16.704Z,9668
2016-06-07T07:00:16.737Z,9700
2016-06-07T07:01:16.788Z,9648
2016-06-07T07:02:16.838Z,9548
2016-06-07T07:03:16.871Z,9484
2016-06-07T07:04:16.921Z,9480
2016-06-07T07:05:16.955Z,9480
2016-06-07T07:06:17.035Z,9864
2016-06-07T07:07:17.085Z,10324
2016-06-07T07:08:16.931Z,11216
2016-06-07T07:09:17.106Z,10060
2016-06-07T07:10:17.015Z,9948
2016-06-07T07:11:17.204Z,9900
2016-06-07T07:12:17.254Z,9832
2016-06-07T07:13:17.289Z,9684
2016-06-07T07:14:17.338Z,9472
2016-06-07T07:15:17.387Z,9212
2016-06-07T07:16:17.422Z,8916
2016-06-07T07:17:17.456Z,8600
2016-06-07T07:18:17.348Z,8616
2016-06-07T07:19:17.539Z,8532
2016-06-07T07:20:17.588Z,8704
2016-06-07T07:21:17.639Z,9040
2016-06-07T07:22:17.781Z,9128
2016-06-07T07:23:17.752Z,9136
2016-06-07T07:24:17.600Z,9240
2016-06-07T07:25:17.805Z,9288
2016-06-07T07:26:17.839Z,9316
2016-06-07T07:27:17.872Z,9396
2016-06-07T07:28:17.922Z,9516
2016-06-07T07:29:17.957Z,9712
2016-06-07T07:30:18.006Z,10156
2016-06-07T07:31:18.055Z,11288
2016-06-07T07:32:18.105Z,13476
2016-06-07T07:33:18.139Z,13052
2016-06-07T07:34:18.017Z,11012
2016-06-07T07:35:18.207Z,10304
2016-06-07T07:36:17.944Z,10156
2016-06-07T07:37:19.088Z,10188
2016-06-07T07:38:18.402Z,10120
2016-06-07T07:39:18.389Z,9948
2016-06-07T07:40:18.439Z,9760
2016-06-07T07:41:18.474Z,9756
2016-06-07T07:42:18.523Z,9912
2016-06-07T07:43:18.557Z,10020
2016-06-07T07:44:18.590Z,10848
2016-06-07T07:45:18.640Z,21728
2016-06-07T07:46:18.673Z,37088
2016-06-07T07:47:18.724Z,44992
2016-06-07T07:48:18.773Z,47232
2016-06-07T07:49:18.806Z,48800
2016-06-07T07:50:18.856Z,50656
2016-06-07T07:51:18.891Z,48224
2016-06-07T07:52:19.409Z,45088
2016-06-07T07:53:19.005Z,46560
2016-06-07T07:54:19.024Z,52320
2016-06-07T07:55:19.073Z,57248
2016-06-07T07:56:18.950Z,62880
2016-06-07T07:57:19.000Z,58432
2016-06-07T07:58:19.191Z,47584
2016-06-07T07:59:19.256Z,42528
2016-06-07T08:00:19.305Z,43520
2016-06-07T08:01:19.339Z,51200
2016-06-07T08:02:19.389Z,60256
2016-06-07T08:03:19.438Z,65184
2016-06-07T08:04:19.488Z,64160
2016-06-07T08:05:19.537Z,58944
2016-06-07T08:06:19.571Z,53472
2016-06-07T08:07:20.263Z,51840
2016-06-07T08:08:19.749Z,53856
2016-06-07T08:09:19.721Z,57728
2016-06-07T08:10:19.770Z,59264
2016-06-07T08:11:19.820Z,58656
2016-06-07T08:12:19.713Z,56768
2016-06-07T08:13:19.903Z,56448
2016-06-07T08:14:19.984Z,57664
2016-06-07T08:15:20.017Z,48704
2016-06-07T08:16:20.067Z,61696
2016-06-07T08:17:20.117Z,59360
2016-06-07T08:18:20.167Z,54688
2016-06-07T08:19:20.232Z,49952
2016-06-07T08:20:20.265Z,46592
2016-06-07T08:21:20.314Z,49472
2016-06-07T08:22:20.724Z,58432
2016-06-07T08:23:20.587Z,68992
2016-06-07T08:24:20.464Z,75008
2016-06-07T08:25:20.528Z,73024
2016-06-07T08:26:20.594Z,64256
2016-06-07T08:27:20.628Z,52672
2016-06-07T08:28:20.677Z,44032
2016-06-07T08:29:20.728Z,42688
2016-06-07T08:30:20.777Z,48736
2016-06-07T08:31:20.827Z,58976
2016-06-07T08:32:20.876Z,68128
2016-06-07T08:33:20.925Z,70912
2016-06-07T08:34:20.974Z,65824
2016-06-07T08:35:21.040Z,55072
2016-06-07T08:36:20.934Z,43968
2016-06-07T08:37:20.983Z,38592
2016-06-07T08:38:21.204Z,41280
2016-06-07T08:39:21.238Z,53120
2016-06-07T08:40:21.287Z,68576
2016-06-07T08:41:21.354Z,77216
2016-06-07T08:42:21.403Z,77344
2016-06-07T08:43:21.452Z,67936
2016-06-07T08:44:21.501Z,55200
2016-06-07T08:45:21.567Z,44064
2016-06-07T08:46:21.554Z,40512
2016-06-07T08:47:21.588Z,46368
2016-06-07T08:48:21.575Z,58528
2016-06-07T08:49:21.781Z,66432
2016-06-07T08:50:21.845Z,69696
2016-06-07T08:51:21.896Z,64416
2016-06-07T08:52:21.805Z,55008
2016-06-07T08:53:22.292Z,44128
2016-06-07T08:54:22.028Z,34944
2016-06-07T08:55:22.094Z,30752
2016-06-07T08:56:22.144Z,28480
2016-06-07T08:57:22.194Z,28832
2016-06-07T08:58:22.258Z,26976
2016-06-07T08:59:22.324Z,25984
2016-06-07T09:00:22.202Z,28576
2016-06-07T09:01:22.407Z,38400
2016-06-07T09:02:22.472Z,38816
2016-06-07T09:03:22.506Z,36512
2016-06-07T09:04:22.571Z,55840
2016-06-07T09:05:22.605Z,43616
2016-06-07T09:06:22.655Z,49312
2016-06-07T09:07:24.298Z,53088
2016-06-07T09:08:22.488Z,62272
2016-06-07T09:09:22.679Z,66784
2016-06-07T09:10:22.899Z,66112
2016-06-07T09:11:22.935Z,62016
2016-06-07T09:12:22.984Z,57152
2016-06-07T09:13:23.033Z,52800
2016-06-07T09:14:23.098Z,49600
2016-06-07T09:15:23.148Z,51616
2016-06-07T09:16:23.182Z,56512
2016-06-07T09:17:23.122Z,63424
2016-06-07T09:18:23.296Z,69280
2016-06-07T09:19:23.049Z,70912
2016-06-07T09:20:23.395Z,68160
2016-06-07T09:21:23.446Z,63552
2016-06-07T09:22:23.526Z,55456
2016-06-07T09:23:24.466Z,47712
2016-06-07T09:24:23.625Z,43488
2016-06-07T09:25:23.675Z,46048
2016-06-07T09:26:23.709Z,54240
2016-06-07T09:27:23.775Z,64960
2016-06-07T09:28:23.823Z,77312
2016-06-07T09:29:23.872Z,89024
2016-06-07T09:30:23.938Z,93824
2016-06-07T09:31:23.973Z,92928
2016-06-07T09:32:24.038Z,84576
2016-06-07T09:33:24.072Z,70976
2016-06-07T09:34:24.122Z,58112
2016-06-07T09:35:24.030Z,51296
2016-06-07T09:36:24.235Z,52352
2016-06-07T09:37:24.535Z,59008
2016-06-07T09:38:24.850Z,70176
2016-06-07T09:39:24.399Z,82304
2016-06-07T09:40:24.449Z,91136
2016-06-07T09:41:24.515Z,96128
2016-06-07T09:42:24.565Z,95680
2016-06-07T09:43:24.598Z,89856
2016-06-07T09:44:24.507Z,80544
2016-06-07T09:45:24.728Z,71008
2016-06-07T09:46:24.763Z,62304
2016-06-07T09:47:24.828Z,59104
2016-06-07T09:48:24.877Z,59520
2016-06-07T09:49:24.943Z,62848
2016-06-07T09:50:24.836Z,70176
2016-06-07T09:51:25.026Z,79008
2016-06-07T09:52:25.092Z,88928
2016-06-07T09:53:25.000Z,97632
2016-06-07T09:54:25.206Z,102400
2016-06-07T09:55:25.256Z,103904
2016-06-07T09:56:25.305Z,102464
2016-06-07T09:57:25.370Z,95072
2016-06-07T09:58:25.420Z,85440
2016-06-07T09:59:25.328Z,73952
2016-06-07T10:00:25.519Z,62720
2016-06-07T10:01:25.569Z,58688
2016-06-07T10:02:25.633Z,62048
2016-06-07T10:03:25.699Z,71776
2016-06-07T10:04:25.733Z,84320
2016-06-07T10:05:25.783Z,92192
2016-06-07T10:06:25.847Z,99104
2016-06-07T10:07:25.897Z,101344
2016-06-07T10:08:26.181Z,101024
2016-06-07T10:09:25.997Z,99936
2016-06-07T10:10:26.061Z,94848
2016-06-07T10:11:26.126Z,88192
2016-06-07T10:12:26.176Z,78208
2016-06-07T10:13:26.226Z,65088
2016-06-07T10:14:26.276Z,58432
2016-06-07T10:15:26.341Z,56896
2016-06-07T10:16:26.374Z,56800
2016-06-07T10:17:26.440Z,60544
2016-06-07T10:18:45.802Z,72000
2016-06-07T10:19:26.552Z,76416
2016-06-07T10:20:26.619Z,83200
2016-06-07T10:21:26.683Z,87904
2016-06-07T10:22:26.716Z,79808
2016-06-07T10:23:26.627Z,70336
2016-06-07T10:24:26.832Z,58304
2016-06-07T10:25:26.896Z,38272
2016-06-07T10:26:26.947Z,31776
2016-06-07T10:27:26.840Z,26752
2016-06-07T10:28:26.890Z,21472
2016-06-07T10:29:27.126Z,20096
2016-06-07T10:30:27.160Z,16800
2016-06-07T10:31:27.209Z,14476
2016-06-07T10:32:27.260Z,13200
2016-06-07T10:33:27.168Z,12344
2016-06-07T10:34:27.390Z,11744
2016-06-07T10:35:27.440Z,11300
2016-06-07T10:36:27.489Z,11064
2016-06-07T10:37:27.539Z,10928
2016-06-07T10:38:27.838Z,10824
2016-06-07T10:39:27.638Z,10696
2016-06-07T10:40:27.703Z,10540
2016-06-07T10:41:27.597Z,10400
2016-06-07T10:42:27.803Z,10276
2016-06-07T10:43:27.852Z,10164
2016-06-07T10:44:27.901Z,10092
2016-06-07T10:45:27.936Z,10052
2016-06-07T10:46:28.000Z,10004
2016-06-07T10:47:28.050Z,9992
2016-06-07T10:48:28.099Z,10008
2016-06-07T10:49:28.009Z,10072
2016-06-07T10:50:28.214Z,10180
2016-06-07T10:51:28.249Z,10292
2016-06-07T10:52:28.157Z,10384
2016-06-07T10:53:28.629Z,10444
2016-06-07T10:54:28.240Z,10500
2016-06-07T10:55:28.459Z,10572
2016-06-07T10:56:28.524Z,10588
2016-06-07T10:57:28.588Z,10584
2016-06-07T10:58:28.653Z,10580
2016-06-07T10:59:28.733Z,10604
2016-06-07T11:00:28.774Z,10660
2016-06-07T11:01:28.844Z,10708
2016-06-07T11:02:28.899Z,10728
2016-06-07T11:03:28.783Z,10696
2016-06-07T11:04:28.978Z,10644
2016-06-07T11:05:29.030Z,10556
2016-06-07T11:06:29.097Z,10488
2016-06-07T11:07:29.149Z,10448
2016-06-07T11:08:29.029Z,10468
2016-06-07T11:09:29.080Z,10516
2016-06-07T11:10:29.287Z,10600
2016-06-07T11:11:29.321Z,10748
2016-06-07T11:12:29.372Z,10972
2016-06-07T11:13:29.423Z,11244
2016-06-07T11:14:29.471Z,11552
2016-06-07T11:15:29.350Z,11784
2016-06-07T11:16:29.572Z,11816
2016-06-07T11:17:29.622Z,11804
2016-06-07T11:18:29.516Z,11836
2016-06-07T11:19:29.706Z,11904
2016-06-07T11:20:29.756Z,11976
2016-06-07T11:21:29.806Z,11984
2016-06-07T11:22:29.839Z,11900
2016-06-07T11:23:30.123Z,11772
2016-06-07T11:24:30.094Z,11596
2016-06-07T11:25:29.988Z,11412
2016-06-07T11:26:30.038Z,11268
2016-06-07T11:27:29.930Z,11184
2016-06-07T11:28:29.981Z,11160
2016-06-07T11:29:30.171Z,11192
2016-06-07T11:30:30.221Z,11300
2016-06-07T11:31:30.269Z,11472
2016-06-07T11:32:30.320Z,11660
2016-06-07T11:33:30.354Z,11860
2016-06-07T11:34:30.403Z,12096
2016-06-07T11:35:30.452Z,12316
2016-06-07T11:36:30.502Z,12508
2016-06-07T11:37:30.551Z,12648
2016-06-07T11:38:31.398Z,12784
2016-06-07T11:39:30.651Z,12984
2016-06-07T11:40:30.684Z,13260
2016-06-07T11:41:30.734Z,13688
2016-06-07T11:42:30.784Z,14352
2016-06-07T11:43:30.818Z,15436
2016-06-07T11:44:30.712Z,17568
2016-06-07T11:45:30.932Z,20672
2016-06-07T11:46:30.967Z,23168
2016-06-07T11:47:31.016Z,23264
2016-06-07T11:48:31.065Z,24480
2016-06-07T11:49:30.959Z,32224
2016-06-07T11:50:31.165Z,37376
2016-06-07T11:51:31.199Z,42496
2016-06-07T11:52:31.248Z,53184
2016-06-07T11:53:32.173Z,51040
2016-06-07T11:54:31.191Z,85376
2016-06-07T11:55:31.413Z,75744
2016-06-07T11:56:31.430Z,91552
2016-06-07T11:57:31.481Z,81632
2016-06-07T11:58:31.546Z,70080
2016-06-07T11:59:31.580Z,53568
2016-06-07T12:00:31.630Z,61984
2016-06-07T12:01:31.694Z,63840
2016-06-07T12:02:31.744Z,61728
2016-06-07T12:03:31.777Z,52768
2016-06-07T12:04:31.827Z,49376
2016-06-07T12:05:31.877Z,55104
2016-06-07T12:06:31.927Z,58784
2016-06-07T12:07:31.992Z,59264
2016-06-07T12:08:32.026Z,57408
2016-06-07T12:09:32.091Z,54208
2016-06-07T12:10:32.140Z,56352
2016-06-07T12:11:32.206Z,55968
2016-06-07T12:12:32.254Z,78208
2016-06-07T12:13:32.304Z,81280
2016-06-07T12:14:32.354Z,82944
2016-06-07T12:15:32.404Z,83360
2016-06-07T12:16:32.298Z,82208
2016-06-07T12:17:32.518Z,76928
2016-06-07T12:18:32.568Z,73216
2016-06-07T12:19:32.618Z,78880
2016-06-07T12:20:32.667Z,85408
2016-06-07T12:21:32.420Z,71808
2016-06-07T12:22:32.782Z,77024
2016-06-07T12:23:32.973Z,70080
2016-06-07T12:24:32.616Z,79008
2016-06-07T12:25:32.962Z,66336
2016-06-07T12:26:33.012Z,57536
2016-06-07T12:27:33.061Z,92352
2016-06-07T12:28:33.127Z,72544
2016-06-07T12:29:33.175Z,93504
2016-06-07T12:30:33.241Z,71776
2016-06-07T12:31:33.291Z,78816
2016-06-07T12:32:33.341Z,82784
2016-06-07T12:33:33.421Z,67264
2016-06-07T12:34:33.455Z,87008
2016-06-07T12:35:33.504Z,87872
2016-06-07T12:36:33.585Z,87360
2016-06-07T12:37:33.463Z,82176
2016-06-07T12:38:33.793Z,79424
2016-06-07T12:39:34.171Z,87808
2016-06-07T12:40:33.627Z,86912
2016-06-07T12:41:33.833Z,78368
2016-06-07T12:42:33.743Z,89856
2016-06-07T12:43:33.948Z,88320
2016-06-07T12:44:34.013Z,86400
2016-06-07T12:45:34.062Z,87616
2016-06-07T12:46:34.112Z,90272
2016-06-07T12:47:34.178Z,92704
2016-06-07T12:48:34.243Z,93856
2016-06-07T12:49:34.293Z,92320
2016-06-07T12:50:34.342Z,91008
2016-06-07T12:51:34.392Z,89024
2016-06-07T12:52:34.473Z,86240
2016-06-07T12:53:34.522Z,84736
2016-06-07T12:54:35.493Z,87424
2016-06-07T12:55:34.636Z,90432
2016-06-07T12:56:34.717Z,90816
2016-06-07T12:57:34.751Z,86944
2016-06-07T12:58:34.817Z,52448
2016-06-07T12:59:34.850Z,10080
2016-06-07T13:00:34.916Z,8884
2016-06-07T13:01:34.965Z,8956
2016-06-07T13:02:34.874Z,8792
2016-06-07T13:03:35.096Z,8236
2016-06-07T13:04:35.161Z,8212
2016-06-07T13:05:35.195Z,8128
2016-06-07T13:06:35.260Z,8164
2016-06-07T13:07:35.324Z,8524
2016-06-07T13:08:35.219Z,9004
2016-06-07T13:09:35.627Z,9136
2016-06-07T13:10:35.318Z,9108
2016-06-07T13:11:35.523Z,8864
2016-06-07T13:12:35.416Z,8696
2016-06-07T13:13:35.638Z,8700
2016-06-07T13:14:35.687Z,8684
2016-06-07T13:15:35.737Z,8668
2016-06-07T13:16:35.802Z,8416
2016-06-07T13:17:35.836Z,8072
2016-06-07T13:18:35.901Z,7808
2016-06-07T13:19:35.935Z,7672
2016-06-07T13:20:36.001Z,7376
2016-06-07T13:21:35.878Z,6900
2016-06-07T13:22:36.084Z,6400
2016-06-07T13:23:36.790Z,5792
2016-06-07T13:24:36.058Z,5196
2016-06-07T13:25:36.092Z,4588
2016-06-07T13:26:36.282Z,3976